Time;durP1;ratioP1;P1;durP2;ratioP2;P2;SDS_P1;SDS_P2;PMS_P1;PMS_P2;Temp;Humidity;BMP_temperature;BMP_pressure;BME280_temperature;BME280_humidity;BME280_pressure;Samples;Min_cycle;Max_cycle;Signal;HPM_P1;HPM_P2
2023/07/11 00:00:07;;;;;;;13.50;6.30;;;;;;;;;;5047586;28;20043;-69
2023/07/11 00:02:33;;;;;;;12.80;6.43;;;;;;;;;;5051686;28;20036;-70
2023/07/11 00:04:59;;;;;;;12.02;6.18;;;;;;;;;;5055703;28;20487;-66
2023/07/11 00:07:25;;;;;;;12.73;6.45;;;;;;;;;;5022857;28;20058;-70
2023/07/11 00:09:51;;;;;;;13.98;6.88;;;;;;;;;;5044646;28;20060;-70
2023/07/11 00:12:17;;;;;;;9.95;6.10;;;;;;;;;;5004735;28;20368;-70
2023/07/11 00:14:43;;;;;;;8.98;6.30;;;;;;;;;;5042210;28;20781;-69
2023/07/11 00:17:09;;;;;;;14.30;7.00;;;;;;;;;;5037504;28;20045;-69
2023/07/11 00:19:50;;;;;;;12.90;6.47;;;;;;;;;;5043735;28;20140;-69
2023/07/11 00:22:16;;;;;;;17.03;6.60;;;;;;;;;;5055566;28;20066;-69
2023/07/11 00:24:42;;;;;;;13.93;6.50;;;;;;;;;;5036729;28;20113;-70
2023/07/11 00:27:12;;;;;;;17.05;6.55;;;;;;;;;;5047669;28;20056;-70
2023/07/11 00:29:38;;;;;;;16.35;7.28;;;;;;;;;;5025149;28;20056;-71
2023/07/11 00:32:04;;;;;;;12.52;6.13;;;;;;;;;;5057443;28;20437;-71
2023/07/11 00:34:29;;;;;;;19.45;6.55;;;;;;;;;;5013897;28;20051;-70
2023/07/11 00:36:55;;;;;;;14.82;6.13;;;;;;;;;;5039476;28;20040;-70
2023/07/11 00:39:20;;;;;;;14.13;6.82;;;;;;;;;;5059716;28;20036;-69
2023/07/11 00:41:46;;;;;;;11.38;6.25;;;;;;;;;;5056825;28;20052;-70
2023/07/11 00:44:13;;;;;;;14.23;6.40;;;;;;;;;;5031690;28;20036;-70
2023/07/11 00:46:40;;;;;;;12.95;6.78;;;;;;;;;;5056479;28;20548;-70
2023/07/11 00:49:08;;;;;;;18.42;6.50;;;;;;;;;;5056108;28;20520;-70
2023/07/11 00:51:38;;;;;;;14.20;6.40;;;;;;;;;;5053808;28;20041;-70
2023/07/11 00:54:07;;;;;;;18.38;6.80;;;;;;;;;;5037294;28;20078;-71
2023/07/11 00:56:36;;;;;;;18.83;7.18;;;;;;;;;;5047900;28;20458;-70
2023/07/11 00:59:02;;;;;;;14.07;5.70;;;;;;;;;;5058061;28;20024;-70
2023/07/11 01:01:28;;;;;;;9.45;6.20;;;;;;;;;;5052185;28;20044;-70
2023/07/11 01:03:54;;;;;;;10.55;5.88;;;;;;;;;;5055587;28;20028;-70
2023/07/11 01:06:26;;;;;;;14.95;6.40;;;;;;;;;;5055014;28;20033;-70
2023/07/11 01:08:53;;;;;;;9.60;5.68;;;;;;;;;;5028096;28;20039;-70
2023/07/11 01:11:21;;;;;;;11.05;6.45;;;;;;;;;;5059361;28;20051;-70
2023/07/11 01:13:47;;;;;;;15.25;5.85;;;;;;;;;;5054326;28;20159;-69
2023/07/11 01:16:12;;;;;;;13.27;5.40;;;;;;;;;;5020332;28;20073;-70
2023/07/11 01:18:38;;;;;;;9.95;6.13;;;;;;;;;;5039796;28;20072;-70
2023/07/11 01:21:05;;;;;;;12.18;6.45;;;;;;;;;;5032531;28;20044;-70
2023/07/11 01:23:32;;;;;;;11.85;5.68;;;;;;;;;;5050327;28;20025;-70
2023/07/11 01:26:00;;;;;;;13.32;5.57;;;;;;;;;;5049891;28;20131;-70
2023/07/11 01:28:25;;;;;;;9.75;6.00;;;;;;;;;;5056561;28;20474;-70
2023/07/11 01:30:51;;;;;;;15.00;6.18;;;;;;;;;;5046536;28;20103;-70
2023/07/11 01:33:16;;;;;;;19.25;6.50;;;;;;;;;;5021080;28;20090;-69
2023/07/11 01:35:42;;;;;;;13.88;6.35;;;;;;;;;;5056268;28;20033;-69
2023/07/11 01:38:07;;;;;;;15.02;6.32;;;;;;;;;;5043237;28;20033;-70
2023/07/11 01:40:32;;;;;;;12.73;6.00;;;;;;;;;;5022845;28;20033;-70
2023/07/11 01:42:58;;;;;;;16.83;5.85;;;;;;;;;;5042451;28;20029;-69
2023/07/11 01:45:24;;;;;;;13.88;5.75;;;;;;;;;;5045753;28;20068;-70
2023/07/11 01:47:49;;;;;;;9.45;5.78;;;;;;;;;;5000933;28;20025;-70
2023/07/11 01:50:15;;;;;;;20.05;6.63;;;;;;;;;;5054623;28;20064;-69
2023/07/11 01:52:40;;;;;;;11.43;5.75;;;;;;;;;;5039380;28;20056;-69
2023/07/11 01:55:09;;;;;;;11.27;5.57;;;;;;;;;;5037468;28;20063;-70
2023/07/11 01:57:35;;;;;;;17.30;6.10;;;;;;;;;;5027549;28;20588;-70
2023/07/11 02:00:00;;;;;;;12.07;5.85;;;;;;;;;;5035222;28;20033;-69
2023/07/11 02:02:25;;;;;;;15.95;5.78;;;;;;;;;;5041495;28;20036;-70
2023/07/11 02:04:52;;;;;;;7.25;5.88;;;;;;;;;;5053345;28;20032;-69
2023/07/11 02:07:18;;;;;;;11.38;5.82;;;;;;;;;;5061969;28;20079;-70
2023/07/11 02:09:43;;;;;;;15.88;5.57;;;;;;;;;;5033846;28;20025;-70
2023/07/11 02:12:09;;;;;;;13.88;5.88;;;;;;;;;;5052012;28;20033;-70
2023/07/11 02:14:36;;;;;;;15.02;5.53;;;;;;;;;;5038079;28;20638;-70
2023/07/11 02:17:02;;;;;;;14.90;5.22;;;;;;;;;;5038314;28;20048;-70
2023/07/11 02:19:27;;;;;;;14.50;5.70;;;;;;;;;;5015457;28;20037;-69
2023/07/11 02:21:53;;;;;;;13.85;6.03;;;;;;;;;;5049177;28;20091;-67
2023/07/11 02:24:19;;;;;;;15.07;6.03;;;;;;;;;;5053515;28;20482;-70
2023/07/11 02:26:45;;;;;;;12.93;5.28;;;;;;;;;;5055757;28;20021;-70
2023/07/11 02:29:11;;;;;;;14.20;5.70;;;;;;;;;;5054583;28;20039;-69
2023/07/11 02:31:37;;;;;;;11.50;5.50;;;;;;;;;;5038398;28;20047;-70
2023/07/11 02:34:03;;;;;;;10.90;5.47;;;;;;;;;;5049036;28;20025;-69
2023/07/11 02:36:29;;;;;;;9.48;5.57;;;;;;;;;;5040469;28;20486;-69
2023/07/11 02:38:55;;;;;;;11.38;6.07;;;;;;;;;;5051081;28;20044;-70
2023/07/11 02:41:21;;;;;;;16.77;5.95;;;;;;;;;;5035128;28;20041;-69
2023/07/11 02:43:47;;;;;;;11.85;5.72;;;;;;;;;;5040118;28;20031;-69
2023/07/11 02:46:14;;;;;;;10.18;5.60;;;;;;;;;;5043057;28;20037;-69
2023/07/11 02:48:40;;;;;;;13.45;5.85;;;;;;;;;;5055753;28;20028;-70
2023/07/11 02:51:05;;;;;;;11.68;5.60;;;;;;;;;;5052004;28;20525;-70
2023/07/11 02:53:31;;;;;;;11.00;5.55;;;;;;;;;;5050193;28;20028;-70
2023/07/11 02:55:56;;;;;;;15.95;5.47;;;;;;;;;;5041116;28;20112;-70
2023/07/11 02:58:22;;;;;;;13.35;5.88;;;;;;;;;;5054136;28;20023;-70
2023/07/11 03:00:49;;;;;;;10.50;5.38;;;;;;;;;;5060115;28;20063;-71
2023/07/11 03:03:14;;;;;;;13.52;6.05;;;;;;;;;;5017294;28;20060;-70
2023/07/11 03:05:47;;;;;;;11.98;5.60;;;;;;;;;;5036529;28;20072;-70
2023/07/11 03:08:13;;;;;;;13.88;6.15;;;;;;;;;;5040973;28;20029;-70
2023/07/11 03:10:39;;;;;;;14.85;5.88;;;;;;;;;;5035571;28;20087;-70
2023/07/11 03:13:05;;;;;;;10.27;5.38;;;;;;;;;;5019649;28;20422;-70
2023/07/11 03:15:32;;;;;;;12.27;5.55;;;;;;;;;;5033240;28;20033;-69
2023/07/11 03:17:57;;;;;;;8.82;5.43;;;;;;;;;;5055554;28;20635;-69
2023/07/11 03:20:23;;;;;;;11.75;5.57;;;;;;;;;;5025951;28;20044;-70
2023/07/11 03:23:26;;;;;;;13.23;5.47;;;;;;;;;;5059585;28;20079;-69
2023/07/11 03:25:52;;;;;;;7.45;5.00;;;;;;;;;;5052907;28;20033;-69
2023/07/11 03:28:17;;;;;;;10.48;5.25;;;;;;;;;;5030667;28;20034;-70
2023/07/11 03:30:43;;;;;;;19.60;5.45;;;;;;;;;;5047069;28;20029;-69
2023/07/11 03:33:08;;;;;;;8.32;5.30;;;;;;;;;;5054453;28;20028;-69
2023/07/11 03:35:34;;;;;;;11.48;5.43;;;;;;;;;;5032525;28;20042;-70
2023/07/11 03:38:00;;;;;;;10.85;5.18;;;;;;;;;;5035043;28;20074;-70
2023/07/11 03:40:26;;;;;;;11.45;4.95;;;;;;;;;;5037864;28;20549;-69
2023/07/11 03:42:52;;;;;;;19.30;5.75;;;;;;;;;;5038912;28;20596;-70
2023/07/11 03:45:17;;;;;;;14.05;5.03;;;;;;;;;;5037719;28;20398;-69
2023/07/11 03:47:42;;;;;;;9.60;5.55;;;;;;;;;;5055598;28;20048;-69
2023/07/11 03:50:08;;;;;;;14.40;5.70;;;;;;;;;;5041661;28;20029;-69
2023/07/11 03:52:34;;;;;;;10.05;5.47;;;;;;;;;;5020612;28;20020;-69
2023/07/11 03:55:00;;;;;;;11.32;5.03;;;;;;;;;;5040799;28;20032;-69
2023/07/11 03:57:25;;;;;;;17.98;5.20;;;;;;;;;;5036263;28;20044;-69
2023/07/11 03:59:51;;;;;;;10.90;4.78;;;;;;;;;;5012280;28;20032;-68
2023/07/11 04:02:16;;;;;;;12.30;5.45;;;;;;;;;;5033486;28;20120;-70
2023/07/11 04:04:42;;;;;;;10.35;5.25;;;;;;;;;;5044989;28;20033;-69
2023/07/11 04:07:07;;;;;;;14.45;4.93;;;;;;;;;;5054378;28;20061;-69
2023/07/11 04:09:33;;;;;;;8.63;4.90;;;;;;;;;;5055428;28;20394;-70
2023/07/11 04:11:58;;;;;;;11.90;5.00;;;;;;;;;;5048171;28;20040;-70
2023/07/11 04:14:24;;;;;;;14.40;5.40;;;;;;;;;;5040247;28;20029;-70
2023/07/11 04:16:49;;;;;;;11.52;4.72;;;;;;;;;;5040138;28;20510;-70
2023/07/11 04:19:16;;;;;;;13.07;5.20;;;;;;;;;;5058965;28;20037;-70
2023/07/11 04:21:41;;;;;;;17.08;5.97;;;;;;;;;;5046589;28;20033;-69
2023/07/11 04:24:07;;;;;;;12.10;5.57;;;;;;;;;;5030565;28;20029;-70
2023/07/11 04:26:32;;;;;;;9.85;4.70;;;;;;;;;;5021606;28;20560;-69
2023/07/11 04:28:58;;;;;;;13.20;5.40;;;;;;;;;;5023109;28;20029;-70
2023/07/11 04:31:26;;;;;;;14.55;4.80;;;;;;;;;;5043162;28;20065;-69
2023/07/11 04:33:51;;;;;;;16.52;5.85;;;;;;;;;;5043839;28;20061;-70
2023/07/11 04:36:17;;;;;;;17.15;5.10;;;;;;;;;;5040127;28;20398;-69
2023/07/11 04:38:43;;;;;;;20.60;5.43;;;;;;;;;;5049782;28;20024;-69
2023/07/11 04:41:09;;;;;;;12.00;5.55;;;;;;;;;;5018338;28;20043;-69
2023/07/11 04:43:35;;;;;;;12.38;5.18;;;;;;;;;;5024609;28;20021;-69
2023/07/11 04:46:02;;;;;;;14.20;5.80;;;;;;;;;;5034522;28;20047;-70
2023/07/11 04:48:28;;;;;;;13.52;5.22;;;;;;;;;;5023084;28;20036;-70
2023/07/11 04:50:57;;;;;;;11.48;5.32;;;;;;;;;;5056801;28;20041;-69
2023/07/11 04:53:23;;;;;;;13.90;4.85;;;;;;;;;;5056677;28;20024;-70
2023/07/11 04:56:04;;;;;;;10.00;5.55;;;;;;;;;;5034796;28;20476;-69
2023/07/11 04:58:31;;;;;;;16.05;5.40;;;;;;;;;;5036706;28;20021;-69
2023/07/11 05:01:04;;;;;;;11.80;4.95;;;;;;;;;;5045681;28;20037;-69
2023/07/11 05:03:30;;;;;;;7.07;4.85;;;;;;;;;;5065316;28;20493;-70
2023/07/11 05:05:57;;;;;;;9.02;5.15;;;;;;;;;;5037986;28;20044;-69
2023/07/11 05:08:22;;;;;;;11.95;5.68;;;;;;;;;;5040328;28;20035;-70
2023/07/11 05:10:53;;;;;;;9.15;5.22;;;;;;;;;;5036268;28;20049;-70
2023/07/11 05:13:19;;;;;;;12.25;5.72;;;;;;;;;;5044399;28;20047;-71
2023/07/11 05:15:45;;;;;;;18.27;5.18;;;;;;;;;;5054444;28;20052;-70
2023/07/11 05:18:10;;;;;;;18.20;4.97;;;;;;;;;;5060096;28;20020;-71
2023/07/11 05:20:36;;;;;;;10.05;5.10;;;;;;;;;;5056987;28;20061;-70
2023/07/11 05:23:01;;;;;;;10.15;4.68;;;;;;;;;;5046493;28;20068;-70
2023/07/11 05:25:27;;;;;;;18.23;5.20;;;;;;;;;;5043334;28;20486;-70
2023/07/11 05:27:52;;;;;;;13.32;5.50;;;;;;;;;;5051225;28;20025;-71
2023/07/11 05:30:17;;;;;;;17.98;5.65;;;;;;;;;;5048638;28;20075;-70
2023/07/11 05:32:43;;;;;;;11.48;4.78;;;;;;;;;;5025282;28;20025;-71
2023/07/11 05:35:08;;;;;;;10.80;5.03;;;;;;;;;;5041743;28;20647;-70
2023/07/11 05:37:34;;;;;;;17.65;5.72;;;;;;;;;;5034102;28;20070;-70
2023/07/11 05:39:59;;;;;;;15.63;4.70;;;;;;;;;;5039969;28;20033;-70
2023/07/11 05:42:24;;;;;;;10.30;5.63;;;;;;;;;;5037114;28;20083;-71
2023/07/11 05:44:50;;;;;;;14.68;5.28;;;;;;;;;;5048725;28;20375;-71
2023/07/11 05:47:15;;;;;;;12.40;5.18;;;;;;;;;;5036659;28;20041;-71
2023/07/11 05:49:41;;;;;;;18.15;5.05;;;;;;;;;;5018243;28;20037;-70
2023/07/11 05:52:06;;;;;;;10.13;5.35;;;;;;;;;;5049157;28;20044;-70
2023/07/11 05:54:32;;;;;;;11.43;5.80;;;;;;;;;;5037373;28;20028;-71
2023/07/11 05:56:57;;;;;;;11.23;5.35;;;;;;;;;;5032345;28;20045;-71
2023/07/11 05:59:22;;;;;;;18.20;5.70;;;;;;;;;;5053594;28;20466;-70
2023/07/11 06:01:48;;;;;;;25.63;6.50;;;;;;;;;;5035826;28;20499;-70
2023/07/11 06:04:16;;;;;;;10.15;5.60;;;;;;;;;;5029674;28;20555;-70
2023/07/11 06:06:42;;;;;;;14.80;5.20;;;;;;;;;;5047603;28;20483;-70
2023/07/11 06:09:13;;;;;;;11.40;5.78;;;;;;;;;;5029475;28;20157;-70
2023/07/11 06:11:39;;;;;;;29.52;5.82;;;;;;;;;;5048796;28;20070;-70
2023/07/11 06:14:04;;;;;;;14.43;6.25;;;;;;;;;;5032636;28;20036;-71
2023/07/11 06:16:30;;;;;;;14.00;6.13;;;;;;;;;;5054538;28;20056;-71
2023/07/11 06:18:55;;;;;;;14.43;5.82;;;;;;;;;;5023253;28;20693;-70
2023/07/11 06:21:21;;;;;;;22.60;6.70;;;;;;;;;;5055049;28;20112;-69
2023/07/11 06:23:47;;;;;;;17.65;5.80;;;;;;;;;;5051785;28;20028;-70
2023/07/11 06:26:13;;;;;;;19.48;6.32;;;;;;;;;;5043982;28;20045;-70
2023/07/11 06:28:39;;;;;;;23.17;5.95;;;;;;;;;;5034707;28;20832;-70
2023/07/11 06:31:05;;;;;;;13.68;6.40;;;;;;;;;;5055369;28;20056;-70
2023/07/11 06:33:30;;;;;;;14.07;6.10;;;;;;;;;;5030857;28;20025;-70
2023/07/11 06:35:57;;;;;;;12.43;5.88;;;;;;;;;;5030718;28;20059;-71
2023/07/11 06:38:22;;;;;;;17.88;5.63;;;;;;;;;;5016680;28;20384;-70
2023/07/11 06:40:50;;;;;;;19.17;5.80;;;;;;;;;;5049636;28;20048;-71
2023/07/11 06:43:16;;;;;;;20.88;6.38;;;;;;;;;;5049999;28;20028;-71
2023/07/11 06:45:43;;;;;;;15.88;6.43;;;;;;;;;;5052490;28;20047;-70
2023/07/11 06:48:09;;;;;;;17.27;6.30;;;;;;;;;;5036974;28;20021;-71
2023/07/11 06:50:34;;;;;;;13.48;6.10;;;;;;;;;;5052214;28;20037;-71
2023/07/11 06:53:00;;;;;;;16.17;6.50;;;;;;;;;;5049377;28;20025;-71
2023/07/11 06:55:25;;;;;;;19.60;6.50;;;;;;;;;;5031793;28;20048;-71
2023/07/11 06:57:51;;;;;;;16.95;5.95;;;;;;;;;;5036368;28;20095;-70
2023/07/11 07:00:17;;;;;;;17.40;6.53;;;;;;;;;;5034658;28;20037;-71
2023/07/11 07:02:42;;;;;;;15.82;6.15;;;;;;;;;;5033574;28;20034;-70
2023/07/11 07:05:08;;;;;;;18.83;5.85;;;;;;;;;;5036453;28;20105;-71
2023/07/11 07:07:34;;;;;;;17.77;6.05;;;;;;;;;;5045498;28;20057;-71
2023/07/11 07:10:00;;;;;;;23.80;6.82;;;;;;;;;;5033630;28;20051;-70
2023/07/11 07:12:25;;;;;;;20.75;6.03;;;;;;;;;;5041606;28;20025;-71
2023/07/11 07:14:51;;;;;;;17.88;6.00;;;;;;;;;;5033436;28;20479;-70
2023/07/11 07:17:16;;;;;;;18.48;7.32;;;;;;;;;;5034988;28;20051;-72
2023/07/11 07:19:43;;;;;;;32.15;6.72;;;;;;;;;;4995390;28;20033;-70
2023/07/11 07:22:08;;;;;;;19.48;6.15;;;;;;;;;;5047532;28;20050;-71
2023/07/11 07:24:34;;;;;;;19.42;6.65;;;;;;;;;;5053533;28;20074;-71
2023/07/11 07:26:59;;;;;;;19.80;6.43;;;;;;;;;;5018950;28;20037;-71
2023/07/11 07:29:25;;;;;;;20.30;6.47;;;;;;;;;;5033079;28;20103;-71
2023/07/11 07:31:50;;;;;;;21.75;5.97;;;;;;;;;;5040684;28;20039;-71
2023/07/11 07:34:15;;;;;;;21.15;6.43;;;;;;;;;;5042896;28;20048;-71
2023/07/11 07:36:41;;;;;;;19.67;6.38;;;;;;;;;;5049942;28;20045;-71
2023/07/11 07:39:06;;;;;;;19.83;6.55;;;;;;;;;;5034576;28;20177;-71
2023/07/11 07:41:32;;;;;;;21.48;6.35;;;;;;;;;;5026429;28;20047;-71
2023/07/11 07:43:57;;;;;;;21.65;6.68;;;;;;;;;;5032961;28;20032;-71
2023/07/11 07:46:23;;;;;;;18.35;6.05;;;;;;;;;;5019597;28;20061;-70
2023/07/11 07:48:49;;;;;;;16.13;5.90;;;;;;;;;;5031274;28;20053;-71
2023/07/11 07:51:16;;;;;;;19.73;6.28;;;;;;;;;;5031946;28;20510;-70
2023/07/11 07:53:42;;;;;;;17.27;5.82;;;;;;;;;;5030902;28;20053;-71
2023/07/11 07:56:10;;;;;;;22.63;6.13;;;;;;;;;;5055443;28;20052;-71
2023/07/11 07:58:36;;;;;;;16.63;6.22;;;;;;;;;;5054485;28;20509;-71
2023/07/11 08:01:03;;;;;;;22.10;5.93;;;;;;;;;;5064098;28;20037;-70
2023/07/11 08:03:30;;;;;;;17.25;6.40;;;;;;;;;;5043078;28;20032;-70
2023/07/11 08:05:57;;;;;;;17.63;5.90;;;;;;;;;;5057544;28;20041;-71
2023/07/11 08:08:22;;;;;;;24.48;6.72;;;;;;;;;;5035771;28;20080;-70
2023/07/11 08:10:48;;;;;;;9.63;5.88;;;;;;;;;;5058055;28;20728;-71
2023/07/11 08:13:13;;;;;;;12.73;5.80;;;;;;;;;;5055012;28;20031;-70
2023/07/11 08:15:42;;;;;;;12.25;5.97;;;;;;;;;;5051988;28;20054;-71
2023/07/11 08:18:07;;;;;;;16.52;6.13;;;;;;;;;;5041775;28;20033;-71
2023/07/11 08:20:33;;;;;;;22.60;6.78;;;;;;;;;;5039299;28;20098;-71
2023/07/11 08:22:58;;;;;;;14.85;5.70;;;;;;;;;;5053989;28;20055;-71
2023/07/11 08:25:24;;;;;;;15.98;6.05;;;;;;;;;;5037265;28;20443;-70
2023/07/11 08:27:49;;;;;;;15.35;6.15;;;;;;;;;;5037430;28;20096;-70
2023/07/11 08:30:15;;;;;;;15.57;6.18;;;;;;;;;;5055483;28;20029;-71
2023/07/11 08:32:41;;;;;;;16.83;5.90;;;;;;;;;;5057570;28;20020;-71
2023/07/11 08:35:07;;;;;;;17.85;6.35;;;;;;;;;;5057364;28;20025;-69
2023/07/11 08:37:33;;;;;;;17.02;6.38;;;;;;;;;;5057411;28;20055;-69
2023/07/11 08:39:59;;;;;;;22.55;5.50;;;;;;;;;;5057312;28;20028;-69
2023/07/11 08:42:35;;;;;;;15.88;5.72;;;;;;;;;;5057940;28;20082;-70
2023/07/11 08:45:21;;;;;;;16.95;5.70;;;;;;;;;;5057156;28;20036;-70
2023/07/11 08:48:03;;;;;;;14.32;5.80;;;;;;;;;;5056782;28;20024;-69
2023/07/11 08:50:36;;;;;;;14.70;5.70;;;;;;;;;;5055650;28;20032;-70
2023/07/11 08:53:24;;;;;;;19.92;5.32;;;;;;;;;;5057393;28;20025;-72
2023/07/11 08:55:52;;;;;;;22.55;6.25;;;;;;;;;;5054655;28;20521;-71
2023/07/11 08:58:28;;;;;;;11.65;5.90;;;;;;;;;;5042494;28;20472;-70
2023/07/11 09:00:56;;;;;;;16.38;5.68;;;;;;;;;;5044983;28;20056;-71
2023/07/11 09:03:34;;;;;;;12.90;5.43;;;;;;;;;;5033046;28;20028;-70
2023/07/11 09:06:10;;;;;;;13.07;5.78;;;;;;;;;;5038726;28;20029;-74
2023/07/11 09:08:46;;;;;;;16.42;5.93;;;;;;;;;;5056828;28;20508;-72
2023/07/11 09:11:14;;;;;;;11.15;5.70;;;;;;;;;;5052245;28;20044;-72
2023/07/11 09:13:59;;;;;;;13.90;5.30;;;;;;;;;;5038868;28;20111;-75
2023/07/11 09:16:50;;;;;;;12.60;5.57;;;;;;;;;;5055317;28;20063;-75
2023/07/11 09:19:24;;;;;;;17.67;5.47;;;;;;;;;;5047801;28;20040;-75
2023/07/11 09:22:05;;;;;;;16.05;5.68;;;;;;;;;;5043085;28;20037;-75
2023/07/11 09:25:00;;;;;;;13.60;5.22;;;;;;;;;;5052781;28;20033;-76
2023/07/11 09:27:32;;;;;;;10.40;5.15;;;;;;;;;;5056917;28;20037;-77
2023/07/11 09:29:58;;;;;;;15.18;5.13;;;;;;;;;;5056980;28;20024;-77
2023/07/11 09:32:33;;;;;;;13.43;5.72;;;;;;;;;;5056084;28;20020;-77
2023/07/11 09:35:19;;;;;;;14.60;5.40;;;;;;;;;;5037160;28;20032;-74
2023/07/11 09:37:48;;;;;;;22.70;6.18;;;;;;;;;;5043982;28;20035;-77
2023/07/11 09:40:34;;;;;;;13.88;6.03;;;;;;;;;;5045690;28;20053;-77
2023/07/11 09:43:02;;;;;;;14.90;5.80;;;;;;;;;;5056227;28;20036;-78
2023/07/11 09:45:41;;;;;;;18.40;6.53;;;;;;;;;;5056247;28;20033;-75
2023/07/11 09:48:10;;;;;;;14.77;6.05;;;;;;;;;;5052844;28;20029;-76
2023/07/11 09:50:47;;;;;;;15.25;5.95;;;;;;;;;;5056914;28;20123;-74
2023/07/11 09:53:17;;;;;;;15.05;5.72;;;;;;;;;;5053788;28;20106;-72
2023/07/11 09:55:42;;;;;;;10.52;5.57;;;;;;;;;;5055233;28;20099;-72
2023/07/11 09:58:16;;;;;;;15.60;6.57;;;;;;;;;;5030526;28;20060;-71
2023/07/11 10:00:52;;;;;;;16.55;6.32;;;;;;;;;;5054404;28;20132;-72
2023/07/11 10:03:20;;;;;;;20.30;5.80;;;;;;;;;;5053320;28;20033;-76
2023/07/11 10:05:51;;;;;;;17.05;6.05;;;;;;;;;;5056406;28;20044;-76
2023/07/11 10:08:19;;;;;;;;;;;;;;;;;;5055823;28;20033;-76
2023/07/11 10:10:46;;;;;;;10.38;6.22;;;;;;;;;;5036488;28;19924;-76
2023/07/11 10:13:13;;;;;;;14.63;5.72;;;;;;;;;;5026616;28;20179;-75
2023/07/11 10:15:40;;;;;;;21.08;6.03;;;;;;;;;;5053614;28;20116;-76
2023/07/11 10:18:16;;;;;;;14.98;6.07;;;;;;;;;;5021166;28;20128;-74
2023/07/11 10:20:52;;;;;;;14.18;5.78;;;;;;;;;;5051969;28;20095;-72
2023/07/11 10:23:22;;;;;;;13.93;5.30;;;;;;;;;;5053105;28;20387;-74
2023/07/11 10:25:52;;;;;;;10.55;5.00;;;;;;;;;;5049083;28;20033;-73
2023/07/11 10:28:23;;;;;;;12.95;5.90;;;;;;;;;;5056094;28;20359;-74
2023/07/11 10:30:50;;;;;;;11.73;5.68;;;;;;;;;;5054064;28;20041;-74
2023/07/11 10:33:22;;;;;;;9.75;4.70;;;;;;;;;;5040835;28;20073;-75
2023/07/11 10:35:55;;;;;;;9.35;5.22;;;;;;;;;;5052776;28;20033;-76
2023/07/11 10:38:25;;;;;;;18.23;5.70;;;;;;;;;;5050899;28;20029;-75
2023/07/11 10:40:55;;;;;;;17.42;6.60;;;;;;;;;;5033066;28;20646;-75
2023/07/11 10:43:26;;;;;;;13.13;5.05;;;;;;;;;;5049581;28;20032;-75
2023/07/11 10:45:58;;;;;;;10.38;5.35;;;;;;;;;;5053149;28;20108;-74
2023/07/11 10:48:32;;;;;;;14.88;5.22;;;;;;;;;;5049207;28;20025;-74
2023/07/11 10:51:12;;;;;;;10.95;5.30;;;;;;;;;;5043817;28;20033;-75
2023/07/11 10:53:46;;;;;;;16.35;5.70;;;;;;;;;;5054800;28;20025;-74
2023/07/11 10:56:12;;;;;;;12.57;5.50;;;;;;;;;;5040817;28;20110;-75
2023/07/11 10:58:38;;;;;;;15.35;5.65;;;;;;;;;;5054254;28;20040;-75
2023/07/11 11:01:22;;;;;;;13.85;5.32;;;;;;;;;;5051357;28;20048;-74
2023/07/11 11:03:48;;;;;;;12.73;5.65;;;;;;;;;;5054063;28;20646;-75
2023/07/11 11:06:31;;;;;;;9.57;5.30;;;;;;;;;;5053869;28;20041;-75
2023/07/11 11:09:35;;;;;;;15.00;5.57;;;;;;;;;;5048322;28;20090;-75
2023/07/11 11:12:34;;;;;;;13.75;5.78;;;;;;;;;;5029720;28;20045;-75
2023/07/11 11:15:25;;;;;;;18.33;5.55;;;;;;;;;;5051556;28;20044;-75
2023/07/11 11:18:04;;;;;;;;;;;;;;;;;;5050413;28;20029;-74
2023/07/11 11:21:01;;;;;;;12.88;5.60;;;;;;;;;;5053326;28;20292;-76
2023/07/11 11:23:38;;;;;;;9.30;5.22;;;;;;;;;;5039849;28;20403;-73
2023/07/11 11:26:09;;;;;;;13.20;5.38;;;;;;;;;;5034785;28;20041;-75
2023/07/11 11:29:10;;;;;;;18.05;5.97;;;;;;;;;;5058559;28;20063;-76
2023/07/11 11:31:56;;;;;;;16.08;5.32;;;;;;;;;;5048492;28;20040;-76
2023/07/11 11:34:51;;;;;;;12.70;5.35;;;;;;;;;;5033615;28;20025;-74
2023/07/11 11:37:28;;;;;;;17.98;5.70;;;;;;;;;;5047922;28;20094;-76
2023/07/11 11:40:01;;;;;;;23.45;6.07;;;;;;;;;;5058314;28;20044;-70
2023/07/11 11:42:33;;;;;;;17.83;5.82;;;;;;;;;;5058709;28;20033;-75
2023/07/11 11:45:03;;;;;;;26.77;6.38;;;;;;;;;;5057495;28;20048;-72
2023/07/11 11:47:31;;;;;;;19.75;6.03;;;;;;;;;;5030612;28;20071;-74
2023/07/11 11:49:57;;;;;;;22.08;6.43;;;;;;;;;;5024078;28;20032;-74
2023/07/11 11:52:24;;;;;;;32.78;7.18;;;;;;;;;;5050998;28;20501;-74
2023/07/11 11:54:50;;;;;;;24.10;6.47;;;;;;;;;;5059106;28;20029;-74
2023/07/11 11:57:23;;;;;;;29.23;7.20;;;;;;;;;;5055953;28;20056;-76
2023/07/11 11:59:49;;;;;;;28.38;6.75;;;;;;;;;;5057490;28;20108;-74
2023/07/11 12:02:33;;;;;;;20.73;6.30;;;;;;;;;;5059600;28;20049;-76
2023/07/11 12:05:18;;;;;;;18.92;5.90;;;;;;;;;;5053766;28;20029;-70
2023/07/11 12:07:44;;;;;;;21.27;6.22;;;;;;;;;;5043834;28;20029;-76
2023/07/11 12:10:16;;;;;;;21.52;5.90;;;;;;;;;;5056798;28;20035;-74
2023/07/11 12:12:41;;;;;;;14.73;5.68;;;;;;;;;;5046511;28;20045;-75
2023/07/11 12:15:12;;;;;;;22.02;5.80;;;;;;;;;;5057764;28;20497;-76
2023/07/11 12:17:40;;;;;;;;;;;;;;;;;;5058016;28;20048;-74
2023/07/11 12:20:06;;;;;;;21.25;6.97;;;;;;;;;;5056780;28;19912;-76
2023/07/11 12:22:37;;;;;;;23.88;6.57;;;;;;;;;;5048437;28;20083;-73
2023/07/11 12:25:05;;;;;;;25.27;6.88;;;;;;;;;;5055215;28;20040;-73
2023/07/11 12:27:31;;;;;;;46.78;8.25;;;;;;;;;;5053938;28;20462;-74
2023/07/11 12:29:57;;;;;;;29.50;6.97;;;;;;;;;;5058522;28;20437;-74
2023/07/11 12:32:32;;;;;;;19.83;6.47;;;;;;;;;;5043287;28;20029;-74
2023/07/11 12:35:08;;;;;;;26.00;6.97;;;;;;;;;;5055810;28;20025;-73
2023/07/11 12:37:46;;;;;;;28.27;6.80;;;;;;;;;;5049765;28;20182;-73
2023/07/11 12:40:37;;;;;;;48.38;8.25;;;;;;;;;;5057863;28;20041;-73
2023/07/11 12:43:16;;;;;;;35.97;7.13;;;;;;;;;;5040595;28;20032;-74
2023/07/11 12:45:47;;;;;;;30.05;7.32;;;;;;;;;;5050904;28;20067;-76
2023/07/11 12:48:23;;;;;;;33.40;6.97;;;;;;;;;;5041915;28;20490;-74
2023/07/11 12:50:51;;;;;;;29.30;7.22;;;;;;;;;;5054881;28;20129;-74
2023/07/11 12:53:17;;;;;;;33.38;7.07;;;;;;;;;;5053595;28;20021;-75
2023/07/11 12:55:45;;;;;;;31.42;7.55;;;;;;;;;;5057418;28;20028;-75
2023/07/11 12:58:22;;;;;;;33.45;7.95;;;;;;;;;;5056052;28;20029;-74
2023/07/11 13:00:49;;;;;;;34.08;7.10;;;;;;;;;;5041694;28;20036;-74
2023/07/11 13:03:36;;;;;;;39.78;7.95;;;;;;;;;;5033506;28;20112;-73
2023/07/11 13:06:04;;;;;;;44.78;8.88;;;;;;;;;;5047928;28;20083;-74
2023/07/11 13:08:31;;;;;;;42.70;7.60;;;;;;;;;;5033614;28;20028;-77
2023/07/11 13:10:59;;;;;;;38.55;8.70;;;;;;;;;;5036539;28;20052;-75
2023/07/11 13:13:26;;;;;;;38.72;7.72;;;;;;;;;;5040609;28;20025;-76
2023/07/11 13:15:52;;;;;;;42.90;8.88;;;;;;;;;;5044679;28;20064;-75
2023/07/11 13:18:34;;;;;;;33.80;7.18;;;;;;;;;;5053678;28;20049;-74
2023/07/11 13:21:02;;;;;;;31.40;6.93;;;;;;;;;;5057963;28;20092;-75
2023/07/11 13:23:46;;;;;;;25.85;7.00;;;;;;;;;;5039144;28;20071;-76
2023/07/11 13:26:21;;;;;;;24.30;6.65;;;;;;;;;;5025665;28;20401;-76
2023/07/11 13:29:09;;;;;;;27.88;6.72;;;;;;;;;;5059376;28;20051;-75
2023/07/11 13:31:36;;;;;;;27.48;6.60;;;;;;;;;;5037028;28;20155;-74
2023/07/11 13:34:23;;;;;;;38.60;6.85;;;;;;;;;;5056761;28;20048;-76
2023/07/11 13:36:49;;;;;;;33.70;6.90;;;;;;;;;;5049856;28;20071;-77
2023/07/11 13:39:27;;;;;;;29.58;7.80;;;;;;;;;;5033849;28;20033;-75
2023/07/11 13:41:58;;;;;;;36.97;7.57;;;;;;;;;;5032310;28;20167;-76
2023/07/11 13:44:29;;;;;;;38.00;8.23;;;;;;;;;;5053912;28;20116;-72
2023/07/11 13:46:55;;;;;;;44.42;8.70;;;;;;;;;;5053597;28;20055;-74
2023/07/11 13:49:25;;;;;;;46.65;9.73;;;;;;;;;;5048191;28;20482;-74
2023/07/11 13:52:01;;;;;;;48.00;9.23;;;;;;;;;;5055762;28;20075;-74
2023/07/11 13:54:38;;;;;;;48.17;9.55;;;;;;;;;;5050009;28;20029;-71
2023/07/11 13:57:05;;;;;;;47.15;9.32;;;;;;;;;;5057296;28;20040;-74
2023/07/11 13:59:31;;;;;;;37.05;8.18;;;;;;;;;;5043147;28;20029;-73
2023/07/11 14:01:57;;;;;;;46.65;9.65;;;;;;;;;;5033723;28;20056;-74
2023/07/11 14:04:27;;;;;;;52.80;9.93;;;;;;;;;;5028523;28;20029;-74
2023/07/11 14:06:53;;;;;;;41.67;8.43;;;;;;;;;;5002491;28;20120;-74
2023/07/11 14:09:18;;;;;;;49.00;9.48;;;;;;;;;;5044620;28;20036;-74
2023/07/11 14:11:44;;;;;;;50.55;10.40;;;;;;;;;;5056838;28;20035;-76
2023/07/11 14:14:18;;;;;;;52.83;9.88;;;;;;;;;;5060638;28;20535;-76
2023/07/11 14:16:44;;;;;;;44.75;9.25;;;;;;;;;;5037938;28;20127;-74
2023/07/11 14:19:32;;;;;;;45.40;10.50;;;;;;;;;;5046276;28;20068;-75
2023/07/11 14:21:59;;;;;;;53.53;9.98;;;;;;;;;;5053156;28;20143;-74
2023/07/11 14:24:26;;;;;;;46.58;9.27;;;;;;;;;;5054245;28;20106;-74
2023/07/11 14:26:52;;;;;;;50.05;9.27;;;;;;;;;;5045317;28;20059;-75
2023/07/11 14:29:25;;;;;;;36.33;7.85;;;;;;;;;;5046991;28;20112;-74
2023/07/11 14:31:52;;;;;;;42.88;8.77;;;;;;;;;;5055118;28;20100;-75
2023/07/11 14:34:26;;;;;;;30.90;7.20;;;;;;;;;;5055498;28;20033;-74
2023/07/11 14:36:53;;;;;;;23.58;5.82;;;;;;;;;;5051326;28;20071;-76
2023/07/11 14:39:19;;;;;;;30.27;5.30;;;;;;;;;;5049928;28;20029;-71
2023/07/11 14:41:48;;;;;;;20.23;5.78;;;;;;;;;;5055237;28;20510;-73